Time;durP1;ratioP1;P1;durP2;ratioP2;P2;SDS_P1;SDS_P2;PMS_P1;PMS_P2;Temp;Humidity;BMP_temperature;BMP_pressure;BME280_temperature;BME280_humidity;BME280_pressure;Samples;Min_cycle;Max_cycle;Signal;HPM_P1;HPM_P2
2022/10/06 00:00:14;;;;;;;1.73;1.20;;;;;;;;;;6171896;23;20016;-73
2022/10/06 00:02:40;;;;;;;2.03;1.35;;;;;;;;;;6175842;23;20502;-73
2022/10/06 00:05:07;;;;;;;1.60;1.30;;;;;;;;;;6173828;23;20524;-72
2022/10/06 00:35:08;;;;;;;1.95;1.65;;;;;;;;;;6167781;23;20753;-72
2022/10/06 00:37:35;;;;;;;2.72;1.10;;;;;;;;;;6173190;23;20032;-73
2022/10/06 00:40:05;;;;;;;1.63;1.10;;;;;;;;;;6173159;23;19997;-72
2022/10/06 00:42:32;;;;;;;1.88;1.20;;;;;;;;;;6171924;23;20113;-72
2022/10/06 00:45:03;;;;;;;2.45;1.33;;;;;;;;;;6170169;23;20052;-73
2022/10/06 00:53:37;;;;;;;2.03;1.48;;;;;;;;;;6168906;23;20036;-74
2022/10/06 00:56:03;;;;;;;2.55;1.15;;;;;;;;;;6145278;23;20009;-73
2022/10/06 00:58:30;;;;;;;3.15;1.10;;;;;;;;;;6172254;23;20001;-72
2022/10/06 01:00:57;;;;;;;1.48;1.30;;;;;;;;;;6145546;23;20373;-72
2022/10/06 01:03:31;;;;;;;2.33;1.20;;;;;;;;;;6172881;23;20096;-72
2022/10/06 01:05:58;;;;;;;2.72;1.30;;;;;;;;;;6172713;23;20008;-72
2022/10/06 01:08:25;;;;;;;1.65;1.20;;;;;;;;;;6171534;23;20016;-72
2022/10/06 01:17:22;;;;;;;2.20;1.20;;;;;;;;;;6167886;23;20036;-72
2022/10/06 01:19:54;;;;;;;1.48;1.05;;;;;;;;;;6152994;23;20214;-72
2022/10/06 01:22:34;;;;;;;1.92;1.20;;;;;;;;;;6173875;23;20009;-73
2022/10/06 01:25:00;;;;;;;2.47;1.17;;;;;;;;;;6172559;23;20005;-73
2022/10/06 01:27:28;;;;;;;3.95;1.50;;;;;;;;;;6174141;23;20452;-72
2022/10/06 01:29:55;;;;;;;2.65;1.40;;;;;;;;;;6146811;23;20009;-72
2022/10/06 01:32:22;;;;;;;1.67;1.17;;;;;;;;;;6172182;23;20047;-72
2022/10/06 01:34:49;;;;;;;1.63;1.13;;;;;;;;;;6172936;23;20028;-72
2022/10/06 01:37:15;;;;;;;1.75;1.30;;;;;;;;;;6173833;23;20013;-72
2022/10/06 01:39:41;;;;;;;2.65;1.20;;;;;;;;;;6173101;23;19997;-72
2022/10/06 01:42:08;;;;;;;2.05;1.30;;;;;;;;;;6173350;23;20385;-72
2022/10/06 01:44:34;;;;;;;1.73;1.38;;;;;;;;;;6172684;23;20001;-74
2022/10/06 01:47:00;;;;;;;1.40;1.10;;;;;;;;;;6172723;23;20337;-73
2022/10/06 01:49:26;;;;;;;1.80;1.38;;;;;;;;;;6174348;23;20055;-73
2022/10/06 01:51:53;;;;;;;1.92;1.20;;;;;;;;;;6173132;23;20080;-73
2022/10/06 01:54:19;;;;;;;2.60;1.17;;;;;;;;;;6173912;23;20017;-73
2022/10/06 01:56:45;;;;;;;1.35;1.20;;;;;;;;;;6174086;23;20016;-73
2022/10/06 01:59:11;;;;;;;1.60;1.25;;;;;;;;;;6146902;23;20736;-73
2022/10/06 02:01:37;;;;;;;3.50;1.48;;;;;;;;;;6170614;23;20349;-73
2022/10/06 02:04:03;;;;;;;2.92;1.50;;;;;;;;;;6173066;23;20005;-73
2022/10/06 02:06:29;;;;;;;1.45;1.13;;;;;;;;;;6173951;23;20009;-73
2022/10/06 02:08:55;;;;;;;1.83;1.30;;;;;;;;;;6171448;23;20001;-73
2022/10/06 02:11:22;;;;;;;1.75;1.00;;;;;;;;;;6173824;23;20004;-73
2022/10/06 02:13:48;;;;;;;3.13;1.10;;;;;;;;;;6172349;23;20012;-73
2022/10/06 02:16:14;;;;;;;2.22;1.15;;;;;;;;;;6173070;23;20028;-73
2022/10/06 02:18:41;;;;;;;3.58;1.20;;;;;;;;;;6172315;23;20114;-72
2022/10/06 02:21:12;;;;;;;2.13;1.17;;;;;;;;;;6170517;23;20080;-72
2022/10/06 02:23:38;;;;;;;;;;;;;;;;;;6172785;23;20005;-73
2022/10/06 02:26:05;;;;;;;2.00;1.10;;;;;;;;;;6173029;23;19995;-72
2022/10/06 02:28:32;;;;;;;1.92;1.20;;;;;;;;;;6172381;23;19993;-73
2022/10/06 02:31:01;;;;;;;1.67;1.10;;;;;;;;;;6169517;23;20115;-73
2022/10/06 02:33:28;;;;;;;1.85;1.10;;;;;;;;;;6172096;23;20000;-72
2022/10/06 02:35:55;;;;;;;1.90;1.13;;;;;;;;;;6171965;23;20032;-73
2022/10/06 02:38:21;;;;;;;1.02;0.80;;;;;;;;;;6171693;23;20318;-73
2022/10/06 02:40:47;;;;;;;1.73;1.10;;;;;;;;;;6143997;23;20001;-73
2022/10/06 02:43:13;;;;;;;1.13;1.00;;;;;;;;;;6172834;23;20020;-73
2022/10/06 02:45:40;;;;;;;1.73;1.00;;;;;;;;;;6171972;23;20001;-73
2022/10/06 02:48:08;;;;;;;1.83;1.15;;;;;;;;;;6173023;23;20001;-73
2022/10/06 02:50:36;;;;;;;2.47;0.98;;;;;;;;;;6170779;23;20113;-73
2022/10/06 02:53:05;;;;;;;2.00;1.10;;;;;;;;;;6146311;23;20024;-73
2022/10/06 02:55:31;;;;;;;2.88;1.33;;;;;;;;;;6170194;23;20017;-72
2022/10/06 02:57:57;;;;;;;1.70;1.00;;;;;;;;;;6172409;23;20013;-72
2022/10/06 03:00:24;;;;;;;1.63;1.20;;;;;;;;;;6170276;23;20005;-72
2022/10/06 03:02:50;;;;;;;2.30;1.20;;;;;;;;;;6171962;23;20004;-72
2022/10/06 03:05:16;;;;;;;1.77;1.08;;;;;;;;;;6172012;23;20002;-73
2022/10/06 03:07:42;;;;;;;1.58;1.13;;;;;;;;;;6172504;23;20091;-73
2022/10/06 03:10:08;;;;;;;1.13;0.80;;;;;;;;;;6169990;23;20009;-73
2022/10/06 03:12:34;;;;;;;2.75;1.00;;;;;;;;;;6172692;23;20009;-72
2022/10/06 03:15:00;;;;;;;1.27;0.80;;;;;;;;;;6170841;23;20001;-73
2022/10/06 03:17:27;;;;;;;1.58;0.95;;;;;;;;;;6170217;23;20013;-72
2022/10/06 03:19:55;;;;;;;2.20;1.10;;;;;;;;;;6168742;23;20120;-73
2022/10/06 03:22:21;;;;;;;1.70;1.00;;;;;;;;;;6168728;23;20815;-72
2022/10/06 03:24:48;;;;;;;1.75;1.00;;;;;;;;;;6167225;23;20005;-72
2022/10/06 03:27:14;;;;;;;2.65;1.20;;;;;;;;;;6168415;23;20008;-73
2022/10/06 03:29:40;;;;;;;1.73;1.27;;;;;;;;;;6168540;23;19997;-73
2022/10/06 03:32:06;;;;;;;1.83;1.00;;;;;;;;;;6169289;23;20005;-72
2022/10/06 03:34:32;;;;;;;1.90;0.95;;;;;;;;;;6167578;23;20021;-72
2022/10/06 03:36:58;;;;;;;2.03;1.00;;;;;;;;;;6168492;23;20013;-72
2022/10/06 03:39:24;;;;;;;2.75;1.00;;;;;;;;;;6168732;23;20005;-72
2022/10/06 03:41:50;;;;;;;1.60;1.10;;;;;;;;;;6168620;23;20108;-72
2022/10/06 03:44:17;;;;;;;2.20;1.10;;;;;;;;;;6168845;23;20005;-72
2022/10/06 03:46:43;;;;;;;1.55;1.30;;;;;;;;;;6167276;23;20032;-73
2022/10/06 03:49:09;;;;;;;2.30;1.20;;;;;;;;;;6168650;23;20012;-72
2022/10/06 03:51:39;;;;;;;3.67;1.40;;;;;;;;;;6168923;23;20084;-73
2022/10/06 03:54:12;;;;;;;1.65;1.13;;;;;;;;;;6168796;23;20039;-72
2022/10/06 03:56:39;;;;;;;2.55;1.10;;;;;;;;;;6168879;23;20005;-72
2022/10/06 03:59:07;;;;;;;2.20;1.20;;;;;;;;;;6171595;23;20051;-72
2022/10/06 04:01:37;;;;;;;2.10;1.10;;;;;;;;;;6169615;23;20508;-73
2022/10/06 04:04:03;;;;;;;2.40;0.95;;;;;;;;;;6170797;23;20005;-73
2022/10/06 04:06:31;;;;;;;2.47;1.40;;;;;;;;;;6170545;23;20011;-73
2022/10/06 04:08:57;;;;;;;1.70;1.10;;;;;;;;;;6168372;23;20084;-72
2022/10/06 04:11:27;;;;;;;1.77;1.30;;;;;;;;;;6170827;23;20008;-72
2022/10/06 04:14:01;;;;;;;1.83;1.20;;;;;;;;;;6170588;23;19997;-73
2022/10/06 04:16:28;;;;;;;1.27;1.13;;;;;;;;;;6170533;23;20009;-75
2022/10/06 04:18:56;;;;;;;2.78;1.25;;;;;;;;;;6170642;23;20025;-72
2022/10/06 04:21:22;;;;;;;2.70;1.30;;;;;;;;;;6168880;23;20005;-73
2022/10/06 04:23:49;;;;;;;1.42;1.10;;;;;;;;;;6170037;23;20005;-73
2022/10/06 04:26:16;;;;;;;2.28;1.45;;;;;;;;;;6169606;23;20009;-73
2022/10/06 04:28:43;;;;;;;1.55;1.10;;;;;;;;;;6169464;23;20005;-72
2022/10/06 04:31:14;;;;;;;1.88;1.15;;;;;;;;;;6171138;23;19997;-73
2022/10/06 04:33:40;;;;;;;2.33;1.52;;;;;;;;;;6169019;23;20013;-73
2022/10/06 04:36:07;;;;;;;1.77;1.10;;;;;;;;;;6170564;23;20580;-73
2022/10/06 04:38:34;;;;;;;2.17;1.23;;;;;;;;;;6169878;23;20001;-72
2022/10/06 04:41:07;;;;;;;2.88;1.25;;;;;;;;;;6170363;23;20009;-73
2022/10/06 04:43:36;;;;;;;2.10;1.20;;;;;;;;;;6171487;23;20029;-72
2022/10/06 04:46:03;;;;;;;3.08;1.17;;;;;;;;;;6170130;23;20697;-73
2022/10/06 04:48:30;;;;;;;1.58;1.15;;;;;;;;;;6167987;23;20039;-72
2022/10/06 04:50:57;;;;;;;1.52;1.15;;;;;;;;;;6170107;23;20385;-72
2022/10/06 04:53:23;;;;;;;2.33;1.10;;;;;;;;;;6170528;23;20001;-72
2022/10/06 04:56:04;;;;;;;1.67;1.38;;;;;;;;;;6169513;23;20067;-72
2022/10/06 04:58:31;;;;;;;2.20;1.10;;;;;;;;;;6168679;23;20012;-73
2022/10/06 05:00:57;;;;;;;3.20;1.30;;;;;;;;;;6167676;23;20040;-74
2022/10/06 05:03:24;;;;;;;1.85;1.30;;;;;;;;;;6169329;23;20108;-73
2022/10/06 05:05:50;;;;;;;5.93;1.88;;;;;;;;;;6169804;23;19997;-76
2022/10/06 05:08:16;;;;;;;7.60;1.83;;;;;;;;;;6172405;23;20035;-74
2022/10/06 05:10:42;;;;;;;1.70;1.23;;;;;;;;;;6170183;23;20001;-74
2022/10/06 05:13:10;;;;;;;3.00;1.20;;;;;;;;;;6168096;23;20055;-74
2022/10/06 05:15:36;;;;;;;1.40;1.17;;;;;;;;;;6170233;23;20005;-74
2022/10/06 05:18:03;;;;;;;2.92;1.88;;;;;;;;;;6169571;23;20056;-76
2022/10/06 05:20:29;;;;;;;1.63;1.00;;;;;;;;;;6170343;23;20009;-74
2022/10/06 05:22:55;;;;;;;9.57;1.50;;;;;;;;;;6168300;23;20315;-74
2022/10/06 05:25:21;;;;;;;2.10;1.30;;;;;;;;;;6169962;23;20026;-74
2022/10/06 05:27:47;;;;;;;3.00;1.42;;;;;;;;;;6170738;23;20025;-74
2022/10/06 05:30:14;;;;;;;1.48;1.20;;;;;;;;;;6167928;23;20015;-74
2022/10/06 05:32:40;;;;;;;1.95;1.10;;;;;;;;;;6170338;23;20084;-74
2022/10/06 05:35:06;;;;;;;2.78;1.50;;;;;;;;;;6169891;23;20008;-74
2022/10/06 05:37:33;;;;;;;1.80;1.30;;;;;;;;;;6169297;23;20067;-73
2022/10/06 05:39:59;;;;;;;1.88;1.08;;;;;;;;;;6167355;23;20008;-74
2022/10/06 05:42:25;;;;;;;2.45;1.58;;;;;;;;;;6169553;23;20025;-74
2022/10/06 05:44:51;;;;;;;2.38;1.45;;;;;;;;;;6169468;23;20355;-74
2022/10/06 05:47:17;;;;;;;3.70;1.33;;;;;;;;;;6170535;23;20584;-75
2022/10/06 05:49:43;;;;;;;1.92;1.23;;;;;;;;;;6166852;23;20009;-74
2022/10/06 05:52:09;;;;;;;3.58;1.42;;;;;;;;;;6170536;23;20036;-74
2022/10/06 05:54:35;;;;;;;6.30;1.88;;;;;;;;;;6170381;23;20013;-75
2022/10/06 05:57:02;;;;;;;3.67;1.70;;;;;;;;;;6170467;23;20044;-76
2022/10/06 05:59:28;;;;;;;3.05;1.90;;;;;;;;;;6169870;23;20670;-74
2022/10/06 06:01:54;;;;;;;4.00;2.10;;;;;;;;;;6167734;23;20437;-74
2022/10/06 06:04:20;;;;;;;2.88;1.85;;;;;;;;;;6169807;23;20322;-75
2022/10/06 06:06:50;;;;;;;5.53;2.70;;;;;;;;;;6170581;23;20009;-75
2022/10/06 06:09:18;;;;;;;5.82;2.80;;;;;;;;;;6169689;23;20009;-75
2022/10/06 06:11:45;;;;;;;7.30;3.25;;;;;;;;;;6169621;23;20032;-82
2022/10/06 06:14:13;;;;;;;10.57;3.63;;;;;;;;;;6170527;23;20509;-79
2022/10/06 06:16:40;;;;;;;6.43;2.92;;;;;;;;;;6169831;23;20032;-73
2022/10/06 06:19:36;;;;;;;5.90;2.83;;;;;;;;;;6169102;23;20005;-76
2022/10/06 06:22:05;;;;;;;8.15;2.63;;;;;;;;;;6167384;23;20468;-80
2022/10/06 06:24:31;;;;;;;6.25;2.50;;;;;;;;;;6143368;23;20405;-79
2022/10/06 06:26:57;;;;;;;5.10;2.70;;;;;;;;;;6169840;23;20656;-74
2022/10/06 06:29:23;;;;;;;6.07;2.78;;;;;;;;;;6169911;23;20020;-76
2022/10/06 06:31:50;;;;;;;5.90;2.65;;;;;;;;;;6167081;23;20740;-75
2022/10/06 06:34:16;;;;;;;7.75;2.55;;;;;;;;;;6169301;23;20072;-80
2022/10/06 06:36:45;;;;;;;3.80;2.20;;;;;;;;;;6165995;23;20021;-77
2022/10/06 06:39:17;;;;;;;5.80;2.17;;;;;;;;;;6169635;23;20025;-81
2022/10/06 06:41:46;;;;;;;;;;;;;;;;;;6170564;23;20070;-82
2022/10/06 06:44:12;;;;;;;3.50;2.15;;;;;;;;;;6172617;23;19908;-85
2022/10/06 06:46:41;;;;;;;8.98;2.60;;;;;;;;;;6170335;23;20482;-74
2022/10/06 06:49:08;;;;;;;10.18;2.88;;;;;;;;;;6170232;23;20005;-75
2022/10/06 06:51:36;;;;;;;4.40;2.53;;;;;;;;;;6169623;23;20568;-75
2022/10/06 06:54:02;;;;;;;10.25;3.53;;;;;;;;;;6132926;23;20124;-76
2022/10/06 06:56:33;;;;;;;8.48;3.95;;;;;;;;;;6138113;23;20107;-76
2022/10/06 06:59:01;;;;;;;9.70;4.95;;;;;;;;;;6138586;23;20375;-75
2022/10/06 07:01:28;;;;;;;11.98;5.50;;;;;;;;;;6137307;23;20052;-76
2022/10/06 07:03:55;;;;;;;6.07;4.35;;;;;;;;;;6137825;23;20016;-76
2022/10/06 07:06:22;;;;;;;15.43;6.65;;;;;;;;;;6023622;23;20010;-75
2022/10/06 07:08:48;;;;;;;13.80;6.65;;;;;;;;;;6088632;23;20022;-76
2022/10/06 07:11:29;;;;;;;13.35;7.97;;;;;;;;;;6089468;23;20006;-76
2022/10/06 07:14:00;;;;;;;11.50;7.97;;;;;;;;;;6102400;23;20010;-76
2022/10/06 07:27:32;;;;;;;8.70;5.70;;;;;;;;;;6109859;23;20042;-77
2022/10/06 07:29:58;;;;;;;7.97;4.40;;;;;;;;;;6085681;23;19998;-78
2022/10/06 07:32:26;;;;;;;4.00;2.45;;;;;;;;;;6110063;23;20502;-78
2022/10/06 07:34:52;;;;;;;3.75;1.77;;;;;;;;;;6104545;23;20008;-78
2022/10/06 07:37:19;;;;;;;2.95;2.17;;;;;;;;;;6099336;23;20010;-79
2022/10/06 07:39:48;;;;;;;3.65;2.20;;;;;;;;;;6106076;23;20002;-78
2022/10/06 07:42:14;;;;;;;5.15;1.70;;;;;;;;;;6100993;23;20285;-76
2022/10/06 07:44:41;;;;;;;3.88;1.60;;;;;;;;;;5039918;23;10000514;-79
2022/10/06 07:47:08;;;;;;;2.10;1.48;;;;;;;;;;6065981;23;20104;-78
2022/10/06 07:49:34;;;;;;;4.57;2.10;;;;;;;;;;6106949;23;20009;-77
2022/10/06 07:52:01;;;;;;;3.08;1.92;;;;;;;;;;6077873;23;20734;-76
2022/10/06 07:54:28;;;;;;;3.75;1.42;;;;;;;;;;6104622;23;20024;-76
2022/10/06 07:56:54;;;;;;;2.83;1.55;;;;;;;;;;6110438;23;20097;-78
2022/10/06 07:59:20;;;;;;;3.92;1.55;;;;;;;;;;6109488;23;19998;-79
2022/10/06 08:01:48;;;;;;;4.90;1.90;;;;;;;;;;6111850;23;20017;-79
2022/10/06 08:04:14;;;;;;;3.50;1.70;;;;;;;;;;6110368;23;20009;-81
2022/10/06 08:06:41;;;;;;;3.95;1.83;;;;;;;;;;6108708;23;20002;-80
2022/10/06 08:09:07;;;;;;;5.25;1.85;;;;;;;;;;6099093;23;20016;-78
2022/10/06 08:11:34;;;;;;;3.58;2.33;;;;;;;;;;6108442;23;20510;-80
2022/10/06 08:14:00;;;;;;;3.00;1.67;;;;;;;;;;6110802;23;20598;-79
2022/10/06 08:16:28;;;;;;;4.38;2.15;;;;;;;;;;6109177;23;20624;-76
2022/10/06 08:18:55;;;;;;;2.78;2.45;;;;;;;;;;6110613;23;20347;-76
2022/10/06 08:21:23;;;;;;;3.28;2.33;;;;;;;;;;6111011;23;20616;-77
2022/10/06 08:23:50;;;;;;;3.38;2.30;;;;;;;;;;6111781;23;20017;-77
2022/10/06 08:26:17;;;;;;;2.30;1.77;;;;;;;;;;6112106;23;20085;-77
2022/10/06 08:28:47;;;;;;;3.10;1.77;;;;;;;;;;6110513;23;20033;-77
2022/10/06 08:31:14;;;;;;;2.55;1.90;;;;;;;;;;6112495;23;20005;-75
2022/10/06 08:33:44;;;;;;;5.25;2.20;;;;;;;;;;6110755;23;20009;-76
2022/10/06 08:36:15;;;;;;;4.95;2.15;;;;;;;;;;6084353;23;20006;-76
2022/10/06 08:38:42;;;;;;;4.22;2.00;;;;;;;;;;6109521;23;20010;-75
2022/10/06 08:41:17;;;;;;;4.30;2.15;;;;;;;;;;6111351;23;20009;-75
2022/10/06 08:43:46;;;;;;;2.42;1.70;;;;;;;;;;6111788;23;20040;-75
2022/10/06 08:46:15;;;;;;;2.28;1.60;;;;;;;;;;6112671;23;20006;-75
2022/10/06 08:48:41;;;;;;;3.83;1.80;;;;;;;;;;6112292;23;20394;-75
2022/10/06 08:51:10;;;;;;;2.15;1.67;;;;;;;;;;6108616;23;20419;-75
2022/10/06 08:53:38;;;;;;;2.90;2.03;;;;;;;;;;6111799;23;20415;-76
2022/10/06 08:56:16;;;;;;;3.25;1.80;;;;;;;;;;6107172;23;20093;-77
2022/10/06 08:58:57;;;;;;;2.40;1.85;;;;;;;;;;6110972;23;20018;-77
2022/10/06 09:01:38;;;;;;;5.05;1.98;;;;;;;;;;6111260;23;19998;-74
2022/10/06 09:04:10;;;;;;;3.80;1.95;;;;;;;;;;6109012;23;20033;-78
2022/10/06 09:06:36;;;;;;;;;;;;;;;;;;6085476;23;20116;-79
2022/10/06 09:09:24;;;;;;;4.78;2.13;;;;;;;;;;6110760;23;20086;-78
2022/10/06 09:12:06;;;;;;;2.80;1.50;;;;;;;;;;6110970;23;20073;-79
2022/10/06 09:14:32;;;;;;;;;;;;;;;;;;6112071;23;20104;-78
2022/10/06 09:17:02;;;;;;;5.38;1.65;;;;;;;;;;6108684;23;19920;-77
2022/10/06 09:19:37;;;;;;;6.57;1.80;;;;;;;;;;6111052;23;20093;-76
2022/10/06 09:22:04;;;;;;;33.08;5.68;;;;;;;;;;6110889;23;20043;-77
2022/10/06 09:24:37;;;;;;;24.90;3.65;;;;;;;;;;6112155;23;20028;-76
2022/10/06 09:27:32;;;;;;;7.40;2.28;;;;;;;;;;6111223;23;20044;-75
2022/10/06 09:29:59;;;;;;;9.48;2.53;;;;;;;;;;6085993;23;20472;-78
2022/10/06 09:32:26;;;;;;;9.27;2.55;;;;;;;;;;6111152;23;20006;-77
2022/10/06 09:34:54;;;;;;;3.83;2.13;;;;;;;;;;6111910;23;20016;-81
2022/10/06 09:37:21;;;;;;;6.50;2.28;;;;;;;;;;6108412;23;20362;-78
2022/10/06 09:39:49;;;;;;;5.95;2.25;;;;;;;;;;6109628;23;20069;-79
2022/10/06 09:42:19;;;;;;;3.95;2.40;;;;;;;;;;6107436;23;20005;-79
2022/10/06 09:44:51;;;;;;;5.03;2.10;;;;;;;;;;6111906;23;20473;-79
2022/10/06 09:47:35;;;;;;;7.35;2.35;;;;;;;;;;6111402;23;20029;-79
2022/10/06 09:50:22;;;;;;;15.90;3.75;;;;;;;;;;6110317;23;20002;-80
2022/10/06 09:53:00;;;;;;;11.45;2.45;;;;;;;;;;6111325;23;20518;-75
2022/10/06 09:55:27;;;;;;;6.22;2.10;;;;;;;;;;6111329;23;20274;-77
2022/10/06 09:57:57;;;;;;;3.50;1.83;;;;;;;;;;6109684;23;20101;-78
2022/10/06 10:00:28;;;;;;;4.43;1.55;;;;;;;;;;6110762;23;19998;-77
2022/10/06 10:03:01;;;;;;;2.53;1.58;;;;;;;;;;6111241;23;20320;-78
2022/10/06 10:05:29;;;;;;;2.88;1.50;;;;;;;;;;6111101;23;20006;-77
2022/10/06 10:08:08;;;;;;;1.70;1.30;;;;;;;;;;6109875;23;20037;-79
2022/10/06 10:10:35;;;;;;;2.30;1.48;;;;;;;;;;6111632;23;20505;-76
2022/10/06 10:13:02;;;;;;;3.05;1.58;;;;;;;;;;6111179;23;20006;-74
2022/10/06 10:15:32;;;;;;;2.30;1.67;;;;;;;;;;6085533;23;20413;-76
2022/10/06 10:18:01;;;;;;;2.60;2.03;;;;;;;;;;6109972;23;20072;-76
2022/10/06 10:20:30;;;;;;;2.45;1.80;;;;;;;;;;6085418;23;20013;-77
2022/10/06 10:23:01;;;;;;;2.28;1.83;;;;;;;;;;6110602;23;20010;-76
2022/10/06 10:25:46;;;;;;;3.05;2.22;;;;;;;;;;6111580;23;19998;-75
2022/10/06 10:28:27;;;;;;;2.70;1.80;;;;;;;;;;6110529;23;20018;-75
2022/10/06 10:30:56;;;;;;;3.55;1.63;;;;;;;;;;6107872;23;20009;-76
2022/10/06 10:33:22;;;;;;;2.80;1.80;;;;;;;;;;6108885;23;19998;-76
2022/10/06 10:35:51;;;;;;;2.10;1.80;;;;;;;;;;6108331;23;20053;-76
2022/10/06 10:38:17;;;;;;;1.60;1.30;;;;;;;;;;6109013;23;20096;-74
2022/10/06 10:40:52;;;;;;;2.83;1.83;;;;;;;;;;6109350;23;20082;-73
2022/10/06 10:43:28;;;;;;;1.65;1.50;;;;;;;;;;6108321;23;20009;-75
2022/10/06 10:45:57;;;;;;;2.65;1.88;;;;;;;;;;6111107;23;20030;-75
2022/10/06 10:48:23;;;;;;;2.25;1.55;;;;;;;;;;6111732;23;20082;-73
2022/10/06 10:50:58;;;;;;;2.63;1.80;;;;;;;;;;6111671;23;20040;-74
2022/10/06 10:53:25;;;;;;;3.88;1.85;;;;;;;;;;6110789;23;20335;-75
2022/10/06 10:55:52;;;;;;;4.90;2.22;;;;;;;;;;6108995;23;20018;-73
2022/10/06 10:58:28;;;;;;;2.75;2.13;;;;;;;;;;6110267;23;20013;-73
2022/10/06 11:00:59;;;;;;;2.40;1.67;;;;;;;;;;6084640;23;20093;-73
2022/10/06 11:03:25;;;;;;;3.25;1.70;;;;;;;;;;6107819;23;20039;-73
2022/10/06 11:06:06;;;;;;;2.33;1.63;;;;;;;;;;6085045;23;20451;-74
2022/10/06 11:08:38;;;;;;;2.83;2.00;;;;;;;;;;6111182;23;20451;-74
2022/10/06 11:11:10;;;;;;;1.60;1.38;;;;;;;;;;6107365;23;20090;-74
2022/10/06 11:13:45;;;;;;;2.97;1.58;;;;;;;;;;6108411;23;20105;-74
2022/10/06 11:16:24;;;;;;;1.95;1.55;;;;;;;;;;6111577;23;20069;-74
2022/10/06 11:19:09;;;;;;;1.83;1.33;;;;;;;;;;6110901;23;20142;-74
2022/10/06 11:21:44;;;;;;;2.70;1.45;;;;;;;;;;6110818;23;20006;-75
2022/10/06 11:24:21;;;;;;;2.10;1.50;;;;;;;;;;6111369;23;20482;-74
2022/10/06 11:26:47;;;;;;;2.15;1.67;;;;;;;;;;6110187;23;20076;-73
2022/10/06 11:29:32;;;;;;;3.30;1.40;;;;;;;;;;6111189;23;20081;-74
2022/10/06 11:32:23;;;;;;;2.85;1.55;;;;;;;;;;6110773;23;20483;-73
2022/10/06 11:34:49;;;;;;;2.45;1.75;;;;;;;;;;6111704;23;20016;-74
2022/10/06 11:37:34;;;;;;;3.70;1.70;;;;;;;;;;6110458;23;20028;-73
2022/10/06 11:40:19;;;;;;;1.88;1.50;;;;;;;;;;6109558;23;20009;-73
2022/10/06 11:43:05;;;;;;;1.55;1.42;;;;;;;;;;6109930;23;20077;-74
2022/10/06 11:45:43;;;;;;;2.45;1.80;;;;;;;;;;6110051;23;20054;-73
2022/10/06 11:48:09;;;;;;;4.05;1.52;;;;;;;;;;6110988;23;20005;-73
2022/10/06 11:50:38;;;;;;;3.13;1.70;;;;;;;;;;6110928;23;20492;-73
2022/10/06 11:53:05;;;;;;;3.17;1.70;;;;;;;;;;6109286;23;20008;-74
2022/10/06 11:55:31;;;;;;;3.42;1.80;;;;;;;;;;6110843;23;20049;-73
2022/10/06 11:58:07;;;;;;;2.53;1.63;;;;;;;;;;6110885;23;20061;-74
2022/10/06 12:00:33;;;;;;;3.20;1.42;;;;;;;;;;6110964;23;20395;-73
2022/10/06 12:03:18;;;;;;;3.22;1.75;;;;;;;;;;6109342;23;20002;-75
2022/10/06 12:05:44;;;;;;;2.53;1.70;;;;;;;;;;6110914;23;20036;-74
2022/10/06 12:08:15;;;;;;;1.90;1.50;;;;;;;;;;6110125;23;20006;-73
2022/10/06 12:10:49;;;;;;;3.13;1.75;;;;;;;;;;6110970;23;20005;-74
2022/10/06 12:13:27;;;;;;;1.65;1.33;;;;;;;;;;6108567;23;20005;-74
2022/10/06 12:16:17;;;;;;;2.38;1.30;;;;;;;;;;6110969;23;20517;-73
2022/10/06 12:18:43;;;;;;;4.68;1.60;;;;;;;;;;6113140;23;20120;-74
2022/10/06 12:21:16;;;;;;;4.20;1.50;;;;;;;;;;6112135;23;20076;-74
2022/10/06 12:23:59;;;;;;;3.15;1.67;;;;;;;;;;6109074;23;20168;-73
2022/10/06 12:26:29;;;;;;;3.90;1.70;;;;;;;;;;6111671;23;20586;-75
2022/10/06 12:29:14;;;;;;;2.95;1.42;;;;;;;;;;6110450;23;20006;-73
2022/10/06 12:31:53;;;;;;;2.45;1.20;;;;;;;;;;6086611;23;20363;-73
2022/10/06 12:34:38;;;;;;;1.60;1.30;;;;;;;;;;6112268;23;20067;-73
2022/10/06 12:37:39;;;;;;;1.70;1.17;;;;;;;;;;6109729;23;20025;-73
2022/10/06 12:40:24;;;;;;;2.05;1.30;;;;;;;;;;5993813;23;20044;-73
2022/10/06 12:42:51;;;;;;;1.90;1.23;;;;;;;;;;6077318;23;20067;-73
2022/10/06 12:45:17;;;;;;;2.55;1.58;;;;;;;;;;6110932;23;20001;-73
2022/10/06 12:47:47;;;;;;;2.60;1.52;;;;;;;;;;6112491;23;20006;-74
2022/10/06 12:50:17;;;;;;;1.73;1.55;;;;;;;;;;6084613;23;20009;-76
2022/10/06 12:52:51;;;;;;;3.13;1.67;;;;;;;;;;6111121;23;20013;-75
2022/10/06 12:55:33;;;;;;;1.90;1.17;;;;;;;;;;6104384;23;20029;-74
2022/10/06 12:58:00;;;;;;;3.30;1.63;;;;;;;;;;6141505;23;20332;-73
2022/10/06 13:00:33;;;;;;;2.83;1.48;;;;;;;;;;6141180;23;20598;-73
2022/10/06 13:03:01;;;;;;;4.20;1.33;;;;;;;;;;6138547;23;20102;-74
2022/10/06 13:05:27;;;;;;;2.03;1.40;;;;;;;;;;6139253;23;19998;-73
2022/10/06 13:08:07;;;;;;;3.05;1.50;;;;;;;;;;6140814;23;20006;-73
2022/10/06 13:10:36;;;;;;;2.67;1.70;;;;;;;;;;6138890;23;20002;-74
2022/10/06 13:13:02;;;;;;;3.65;1.77;;;;;;;;;;6138083;23;20013;-74
2022/10/06 13:15:33;;;;;;;1.58;1.30;;;;;;;;;;6136760;23;20040;-73
2022/10/06 13:18:23;;;;;;;3.40;1.57;;;;;;;;;;6137005;23;20017;-80
2022/10/06 13:21:17;;;;;;;3.28;1.67;;;;;;;;;;6137956;23;20032;-79
2022/10/06 13:30:53;;;;;;;3.03;1.90;;;;;;;;;;6121871;23;20029;-76
2022/10/06 13:33:18;;;;;;;2.85;1.55;;;;;;;;;;6100492;23;20009;-77
2022/10/06 13:35:53;;;;;;;1.58;1.42;;;;;;;;;;6137627;23;20005;-77
2022/10/06 13:38:19;;;;;;;2.45;1.38;;;;;;;;;;6138322;23;20304;-77
2022/10/06 13:41:01;;;;;;;3.38;1.50;;;;;;;;;;6137686;23;20002;-77
2022/10/06 13:43:28;;;;;;;2.03;1.42;;;;;;;;;;6135958;23;20010;-77
2022/10/06 13:45:56;;;;;;;1.77;1.30;;;;;;;;;;6138367;23;20072;-78
2022/10/06 13:48:23;;;;;;;2.42;1.45;;;;;;;;;;6138340;23;20012;-76
2022/10/06 13:50:51;;;;;;;1.90;1.30;;;;;;;;;;6137181;23;20009;-77
2022/10/06 13:53:32;;;;;;;1.20;1.00;;;;;;;;;;6138107;23;20044;-76
2022/10/06 13:56:06;;;;;;;1.63;1.15;;;;;;;;;;6111193;23;20045;-76
2022/10/06 14:01:28;;;;;;;4.55;1.45;;;;;;;;;;6138661;23;20072;-77
2022/10/06 14:04:14;;;;;;;3.13;1.60;;;;;;;;;;6138617;23;20525;-77
2022/10/06 14:06:54;;;;;;;1.75;1.35;;;;;;;;;;6136850;23;20009;-76
2022/10/06 14:09:23;;;;;;;3.00;1.65;;;;;;;;;;6138269;23;20005;-76
2022/10/06 14:11:50;;;;;;;1.85;1.50;;;;;;;;;;6138392;23;20025;-75
2022/10/06 14:14:16;;;;;;;6.25;2.10;;;;;;;;;;6136086;23;20020;-75
2022/10/06 14:16:50;;;;;;;2.05;1.48;;;;;;;;;;6137916;23;20097;-76
2022/10/06 14:19:29;;;;;;;1.63;1.00;;;;;;;;;;6136320;23;20019;-76
2022/10/06 14:21:55;;;;;;;1.40;1.10;;;;;;;;;;6138672;23;19997;-75
2022/10/06 14:24:24;;;;;;;1.98;1.20;;;;;;;;;;6138191;23;20009;-76
2022/10/06 14:26:53;;;;;;;1.70;1.25;;;;;;;;;;6112008;23;20092;-76
2022/10/06 14:29:20;;;;;;;2.53;1.40;;;;;;;;;;6138390;23;20113;-76
2022/10/06 14:31:46;;;;;;;1.77;1.42;;;;;;;;;;6112546;23;20001;-76
2022/10/06 14:34:14;;;;;;;3.35;1.60;;;;;;;;;;6136197;23;20004;-76
2022/10/06 14:36:41;;;;;;;2.22;1.30;;;;;;;;;;6112548;23;20014;-75
2022/10/06 14:39:07;;;;;;;2.15;1.38;;;;;;;;;;6138230;23;20105;-75
2022/10/06 14:41:34;;;;;;;2.40;1.50;;;;;;;;;;6137559;23;20064;-75
2022/10/06 14:44:02;;;;;;;1.75;1.30;;;;;;;;;;6137170;23;20494;-76
2022/10/06 14:46:28;;;;;;;2.25;1.30;;;;;;;;;;6135385;23;20041;-75
2022/10/06 14:48:57;;;;;;;2.60;1.20;;;;;;;;;;6138538;23;20009;-88
2022/10/06 14:51:25;;;;;;;2.38;1.23;;;;;;;;;;6111609;23;20613;-78
2022/10/06 14:53:53;;;;;;;2.65;1.60;;;;;;;;;;6133288;23;20101;-77
2022/10/06 14:56:19;;;;;;;5.50;2.05;;;;;;;;;;6082971;23;20323;-77
2022/10/06 14:58:45;;;;;;;1.80;1.30;;;;;;;;;;6081100;23;20014;-78
2022/10/06 15:01:14;;;;;;;2.55;1.20;;;;;;;;;;6109435;23;20431;-77
2022/10/06 15:03:40;;;;;;;1.50;1.30;;;;;;;;;;6109037;23;20675;-77
2022/10/06 15:08:54;;;;;;;1.45;1.20;;;;;;;;;;6106468;23;20049;-77
2022/10/06 15:11:21;;;;;;;2.38;1.55;;;;;;;;;;6108223;23;20525;-78
2022/10/06 15:13:47;;;;;;;1.45;1.25;;;;;;;;;;6108720;23;20379;-77
2022/10/06 15:16:14;;;;;;;2.60;1.52;;;;;;;;;;6106295;23;20143;-77
2022/10/06 15:19:24;;;;;;;1.60;1.40;;;;;;;;;;6107224;23;20009;-80
2022/10/06 15:22:04;;;;;;;3.63;1.30;;;;;;;;;;6107856;23;20014;-79
2022/10/06 15:24:47;;;;;;;2.27;1.50;;;;;;;;;;6107829;23;20064;-81
2022/10/06 15:29:59;;;;;;;2.42;1.40;;;;;;;;;;6109124;23;20025;-79
2022/10/06 15:32:25;;;;;;;2.50;1.58;;;;;;;;;;6107711;23;20002;-75
2022/10/06 15:34:51;;;;;;;4.65;1.58;;;;;;;;;;6106672;23;20009;-74
2022/10/06 15:37:18;;;;;;;2.53;1.60;;;;;;;;;;6108146;23;20017;-77
2022/10/06 15:39:45;;;;;;;4.95;1.75;;;;;;;;;;6108538;23;19999;-74
2022/10/06 15:42:14;;;;;;;3.95;1.85;;;;;;;;;;6107924;23;20013;-73
2022/10/06 15:44:40;;;;;;;2.63;1.73;;;;;;;;;;6107162;23;20002;-73
2022/10/06 15:47:07;;;;;;;5.53;1.60;;;;;;;;;;6107066;23;20006;-74
2022/10/06 15:49:37;;;;;;;21.58;3.47;;;;;;;;;;6108586;23;20085;-73
2022/10/06 15:52:04;;;;;;;11.40;2.03;;;;;;;;;;6110094;23;20025;-74
2022/10/06 15:54:30;;;;;;;4.20;2.17;;;;;;;;;;6107314;23;20017;-73
2022/10/06 15:56:57;;;;;;;3.50;1.60;;;;;;;;;;6110783;23;20072;-78
2022/10/06 15:59:24;;;;;;;3.08;1.55;;;;;;;;;;6111248;23;20506;-75
2022/10/06 16:01:59;;;;;;;2.50;1.20;;;;;;;;;;6111300;23;20137;-77
2022/10/06 16:06:56;;;;;;;3.05;1.70;;;;;;;;;;6121237;23;20013;-79